Time;durP1;ratioP1;P1;durP2;ratioP2;P2;SDS_P1;SDS_P2;PMS_P1;PMS_P2;Temp;Humidity;BMP_temperature;BMP_pressure;BME280_temperature;BME280_humidity;BME280_pressure;Samples;Min_cycle;Max_cycle;Signal;HPM_P1;HPM_P2
2021/07/18 00:01:44;;;;;;;0.00;0.00;;;15.50;99.90;;;;;;5009828;28;20201;-66
2021/07/18 00:04:11;;;;;;;0.00;0.00;;;15.40;99.90;;;;;;5012772;28;20233;-67
2021/07/18 00:06:40;;;;;;;0.00;0.00;;;15.50;99.90;;;;;;5007874;28;20609;-69
2021/07/18 00:09:08;;;;;;;0.00;0.00;;;15.40;99.90;;;;;;5009945;28;20220;-66
2021/07/18 00:11:35;;;;;;;0.00;0.00;;;15.40;99.90;;;;;;5013831;28;20254;-66
2021/07/18 00:14:03;;;;;;;0.00;0.00;;;15.40;99.90;;;;;;5012801;28;20197;-67
2021/07/18 00:16:30;;;;;;;0.00;0.00;;;15.40;99.90;;;;;;5009182;28;20201;-67
2021/07/18 00:18:57;;;;;;;0.00;0.00;;;15.40;99.90;;;;;;4994107;28;20757;-66
2021/07/18 00:21:24;;;;;;;0.00;0.00;;;15.30;99.90;;;;;;5004435;28;20213;-66
2021/07/18 00:23:54;;;;;;;0.00;0.00;;;15.30;99.90;;;;;;5003158;28;20201;-68
2021/07/18 00:26:21;;;;;;;0.00;0.00;;;15.30;99.90;;;;;;5002252;28;20201;-68
2021/07/18 00:28:48;;;;;;;0.00;0.00;;;15.30;99.90;;;;;;4999584;28;20244;-69
2021/07/18 00:31:16;;;;;;;1.07;0.93;;;15.30;99.90;;;;;;4998218;28;20553;-67
2021/07/18 00:33:43;;;;;;;0.00;0.00;;;15.30;99.90;;;;;;4999766;28;20209;-68
2021/07/18 00:36:10;;;;;;;0.00;0.00;;;15.30;99.90;;;;;;4998032;28;20205;-67
2021/07/18 00:38:37;;;;;;;0.00;0.00;;;15.30;99.90;;;;;;5000146;28;20772;-68
2021/07/18 00:41:05;;;;;;;0.00;0.00;;;15.30;99.90;;;;;;4999079;28;20259;-67
2021/07/18 00:43:32;;;;;;;0.00;0.00;;;15.30;99.90;;;;;;5000974;28;20295;-68
2021/07/18 00:46:01;;;;;;;0.00;0.00;;;15.30;99.90;;;;;;4995722;28;20205;-67
2021/07/18 00:48:30;;;;;;;0.00;0.00;;;15.30;99.90;;;;;;5000113;28;20279;-68
2021/07/18 00:50:58;;;;;;;0.00;0.00;;;15.20;99.90;;;;;;4998071;28;20367;-68
2021/07/18 00:53:25;;;;;;;0.00;0.00;;;15.20;99.90;;;;;;4995057;28;20229;-68
2021/07/18 00:55:53;;;;;;;0.20;0.20;;;15.20;99.90;;;;;;4997168;28;20737;-67
2021/07/18 00:58:24;;;;;;;0.00;0.00;;;15.10;99.90;;;;;;5000909;28;20662;-68
2021/07/18 01:00:51;;;;;;;0.00;0.00;;;15.10;99.90;;;;;;4995120;28;20598;-67
2021/07/18 01:03:19;;;;;;;0.00;0.00;;;15.10;99.90;;;;;;4997182;28;20255;-67
2021/07/18 01:05:46;;;;;;;0.00;0.00;;;15.10;99.90;;;;;;4996288;28;20240;-67
2021/07/18 01:08:13;;;;;;;0.00;0.00;;;15.10;99.90;;;;;;4999842;28;20201;-67
2021/07/18 01:10:40;;;;;;;0.00;0.00;;;15.10;99.90;;;;;;4997560;28;20298;-67
2021/07/18 01:13:07;;;;;;;0.00;0.00;;;15.10;99.90;;;;;;4996378;28;20259;-68
2021/07/18 01:15:36;;;;;;;0.00;0.00;;;15.10;99.90;;;;;;4993347;28;20738;-67
2021/07/18 01:18:04;;;;;;;0.00;0.00;;;15.00;99.90;;;;;;4997028;28;20672;-68
2021/07/18 01:20:32;;;;;;;0.00;0.00;;;15.00;99.90;;;;;;4995326;28;20209;-67
2021/07/18 01:23:01;;;;;;;0.00;0.00;;;15.00;99.90;;;;;;4993131;28;20197;-67
2021/07/18 01:25:28;;;;;;;0.00;0.00;;;14.90;99.90;;;;;;4997284;28;20267;-67
2021/07/18 01:27:55;;;;;;;0.00;0.00;;;14.90;99.90;;;;;;4998264;28;20209;-66
2021/07/18 01:30:22;;;;;;;0.00;0.00;;;14.90;99.90;;;;;;4992719;28;20315;-68
2021/07/18 01:32:49;;;;;;;0.00;0.00;;;14.90;99.90;;;;;;4992836;28;20200;-68
2021/07/18 01:35:16;;;;;;;0.00;0.00;;;14.90;99.90;;;;;;4991276;28;22147;-69
2021/07/18 01:37:43;;;;;;;0.00;0.00;;;14.90;99.90;;;;;;4996755;28;20197;-67
2021/07/18 01:40:12;;;;;;;0.00;0.00;;;14.90;99.90;;;;;;4994411;28;20256;-67
2021/07/18 01:42:40;;;;;;;0.00;0.00;;;14.90;99.90;;;;;;4996355;28;20213;-68
2021/07/18 01:45:08;;;;;;;0.00;0.00;;;14.90;99.90;;;;;;4991169;28;20205;-68
2021/07/18 01:47:35;;;;;;;0.00;0.00;;;14.90;99.90;;;;;;4990813;28;20270;-69
2021/07/18 01:50:05;;;;;;;0.00;0.00;;;14.90;99.90;;;;;;4991994;28;20267;-68
2021/07/18 01:52:32;;;;;;;0.00;0.00;;;14.90;99.90;;;;;;4994000;28;20267;-68
2021/07/18 01:54:59;;;;;;;0.00;0.00;;;14.90;99.90;;;;;;4993830;28;20216;-68
2021/07/18 01:57:27;;;;;;;0.00;0.00;;;14.90;99.90;;;;;;4993725;28;20213;-70
2021/07/18 01:59:54;;;;;;;0.00;0.00;;;14.90;99.90;;;;;;4997647;28;20258;-68
2021/07/18 02:02:21;;;;;;;0.00;0.00;;;14.90;99.90;;;;;;4996981;28;20255;-67
2021/07/18 02:04:49;;;;;;;0.00;0.00;;;14.80;99.90;;;;;;4997651;28;20193;-67
2021/07/18 02:07:17;;;;;;;0.00;0.00;;;14.80;99.90;;;;;;4998898;28;20681;-69
2021/07/18 02:09:45;;;;;;;0.00;0.00;;;14.80;99.90;;;;;;5001995;28;20231;-68
2021/07/18 02:12:12;;;;;;;0.00;0.00;;;14.80;99.90;;;;;;5001301;28;20686;-68
2021/07/18 02:14:42;;;;;;;0.00;0.00;;;14.80;99.90;;;;;;5000506;28;20201;-68
2021/07/18 02:17:09;;;;;;;0.00;0.00;;;14.80;99.90;;;;;;5002540;28;20730;-68
2021/07/18 02:19:36;;;;;;;0.00;0.00;;;14.80;99.90;;;;;;5002257;28;20267;-67
2021/07/18 02:22:03;;;;;;;0.00;0.00;;;14.70;99.90;;;;;;4998652;28;20303;-69
2021/07/18 02:24:30;;;;;;;0.00;0.00;;;14.70;99.90;;;;;;4996173;28;20719;-68
2021/07/18 02:26:58;;;;;;;0.00;0.00;;;14.60;99.90;;;;;;4996279;28;20205;-68
2021/07/18 02:29:25;;;;;;;0.00;0.00;;;14.60;99.90;;;;;;4994594;28;20690;-68
2021/07/18 02:31:54;;;;;;;0.00;0.00;;;14.50;99.90;;;;;;4995877;28;20670;-67
2021/07/18 02:34:22;;;;;;;0.00;0.00;;;14.50;99.90;;;;;;4994429;28;20229;-69
2021/07/18 02:36:49;;;;;;;0.00;0.00;;;14.50;99.90;;;;;;4998057;28;20240;-68
2021/07/18 02:39:16;;;;;;;0.00;0.00;;;14.50;99.90;;;;;;4996568;28;20255;-69
2021/07/18 02:41:43;;;;;;;0.00;0.00;;;14.50;99.90;;;;;;4994984;28;20276;-68
2021/07/18 02:44:10;;;;;;;0.00;0.00;;;14.50;99.90;;;;;;4995352;28;20209;-69
2021/07/18 02:46:37;;;;;;;0.00;0.00;;;14.50;99.90;;;;;;4993969;28;20205;-69
2021/07/18 02:49:05;;;;;;;0.00;0.00;;;14.50;99.90;;;;;;4996939;28;20593;-69
2021/07/18 02:51:32;;;;;;;0.00;0.00;;;14.50;99.90;;;;;;4997665;28;20741;-67
2021/07/18 02:53:59;;;;;;;0.00;0.00;;;14.50;99.90;;;;;;4998706;28;20318;-68
2021/07/18 02:56:26;;;;;;;0.00;0.00;;;14.50;99.90;;;;;;4998691;28;20610;-69
2021/07/18 02:58:53;;;;;;;0.00;0.00;;;14.50;99.90;;;;;;4997040;28;20206;-67
2021/07/18 03:01:20;;;;;;;0.00;0.00;;;14.50;99.90;;;;;;5001528;28;20208;-68
2021/07/18 03:03:47;;;;;;;0.00;0.00;;;14.50;99.90;;;;;;4997017;28;20193;-68
2021/07/18 03:06:16;;;;;;;0.00;0.00;;;14.50;99.90;;;;;;4998515;28;20204;-69
2021/07/18 03:08:43;;;;;;;0.00;0.00;;;14.50;99.90;;;;;;5000722;28;20200;-68
2021/07/18 03:11:10;;;;;;;0.00;0.00;;;14.50;99.90;;;;;;5005056;28;20232;-68
2021/07/18 03:13:37;;;;;;;0.00;0.00;;;14.50;99.90;;;;;;5001116;28;20201;-69
2021/07/18 03:16:04;;;;;;;0.00;0.00;;;14.50;99.90;;;;;;4992786;28;20283;-68
2021/07/18 03:18:31;;;;;;;0.00;0.00;;;14.50;99.90;;;;;;4993869;28;20197;-68
2021/07/18 03:20:58;;;;;;;0.00;0.00;;;14.50;99.90;;;;;;4996113;28;20209;-69
2021/07/18 03:23:27;;;;;;;0.00;0.00;;;14.50;99.90;;;;;;4993275;28;20267;-70
2021/07/18 03:25:54;;;;;;;0.00;0.00;;;14.60;99.90;;;;;;4993605;28;20326;-69
2021/07/18 03:28:22;;;;;;;0.00;0.00;;;14.50;99.90;;;;;;4996719;28;21216;-69
2021/07/18 03:30:50;;;;;;;0.00;0.00;;;14.60;99.90;;;;;;4992697;28;20298;-69
2021/07/18 03:33:17;;;;;;;0.00;0.00;;;14.60;99.90;;;;;;4994964;28;20273;-69
2021/07/18 03:35:44;;;;;;;0.00;0.00;;;14.60;99.90;;;;;;4993774;28;20333;-68
2021/07/18 03:38:11;;;;;;;0.00;0.00;;;14.60;99.90;;;;;;4993712;28;20206;-68
2021/07/18 03:40:39;;;;;;;0.00;0.00;;;14.60;99.90;;;;;;4993148;28;20237;-69
2021/07/18 03:43:06;;;;;;;0.00;0.00;;;14.70;99.90;;;;;;4994090;28;20209;-69
2021/07/18 03:45:33;;;;;;;0.00;0.00;;;14.70;99.90;;;;;;4997920;28;20267;-69
2021/07/18 03:48:00;;;;;;;0.00;0.00;;;14.70;99.90;;;;;;4994067;28;20201;-69
2021/07/18 03:50:27;;;;;;;0.00;0.00;;;14.80;99.90;;;;;;4998085;28;20279;-68
2021/07/18 03:52:54;;;;;;;0.00;0.00;;;14.80;99.90;;;;;;4994713;28;20291;-68
2021/07/18 03:55:21;;;;;;;0.00;0.00;;;14.90;99.90;;;;;;4994090;28;20635;-69
2021/07/18 03:57:49;;;;;;;0.00;0.00;;;14.90;99.90;;;;;;4992485;28;20310;-69
2021/07/18 04:00:17;;;;;;;0.00;0.00;;;14.90;99.90;;;;;;4995367;28;20237;-68
2021/07/18 04:02:44;;;;;;;0.00;0.00;;;14.90;99.90;;;;;;4994195;28;20197;-69
2021/07/18 04:05:12;;;;;;;0.00;0.00;;;14.90;99.90;;;;;;4993270;28;20204;-68
2021/07/18 04:07:39;;;;;;;0.00;0.00;;;14.90;99.90;;;;;;4993288;28;20744;-69
2021/07/18 04:10:07;;;;;;;0.00;0.00;;;14.90;99.90;;;;;;4990982;28;20239;-68
2021/07/18 04:12:34;;;;;;;0.00;0.00;;;14.90;99.90;;;;;;4994121;28;20290;-69
2021/07/18 04:15:02;;;;;;;0.00;0.00;;;14.90;99.90;;;;;;4998290;28;20205;-68
2021/07/18 04:17:29;;;;;;;0.00;0.00;;;15.00;99.90;;;;;;5001602;28;20201;-69
2021/07/18 04:19:56;;;;;;;0.00;0.00;;;15.00;99.90;;;;;;4998468;28;20194;-70
2021/07/18 04:22:23;;;;;;;0.00;0.00;;;15.00;99.90;;;;;;4994351;28;20295;-69
2021/07/18 04:24:50;;;;;;;0.00;0.00;;;15.00;99.90;;;;;;4993226;28;20201;-68
2021/07/18 04:27:17;;;;;;;0.00;0.00;;;15.00;99.90;;;;;;4999851;28;20208;-69
2021/07/18 04:29:44;;;;;;;0.00;0.00;;;15.10;99.90;;;;;;4995427;28;20220;-68
2021/07/18 04:32:13;;;;;;;0.00;0.00;;;15.10;99.90;;;;;;4995495;28;20709;-69
2021/07/18 04:34:42;;;;;;;0.00;0.00;;;15.10;99.90;;;;;;4993264;28;20237;-69
2021/07/18 04:37:10;;;;;;;0.00;0.00;;;15.10;99.90;;;;;;4997303;28;20676;-68
2021/07/18 04:39:37;;;;;;;0.00;0.00;;;15.20;99.90;;;;;;4996748;28;20247;-69
2021/07/18 04:42:04;;;;;;;0.00;0.00;;;15.20;99.90;;;;;;4994914;28;20255;-69
2021/07/18 04:44:32;;;;;;;0.00;0.00;;;15.30;99.90;;;;;;4996919;28;20271;-69
2021/07/18 04:46:59;;;;;;;0.00;0.00;;;15.40;99.90;;;;;;4995907;28;20279;-69
2021/07/18 04:49:28;;;;;;;0.00;0.00;;;15.50;99.90;;;;;;4994161;28;20201;-69
2021/07/18 04:51:55;;;;;;;0.00;0.00;;;15.60;99.90;;;;;;4993833;28;20201;-68
2021/07/18 04:54:22;;;;;;;0.00;0.00;;;15.70;99.90;;;;;;4995203;28;20713;-69
2021/07/18 04:56:51;;;;;;;0.00;0.00;;;15.80;99.90;;;;;;4999153;28;20208;-69
2021/07/18 04:59:18;;;;;;;0.00;0.00;;;16.00;99.90;;;;;;4995917;28;20224;-69
2021/07/18 05:01:45;;;;;;;0.00;0.00;;;16.10;99.90;;;;;;4998251;28;20197;-68
2021/07/18 05:04:12;;;;;;;0.00;0.00;;;16.10;99.90;;;;;;4996475;28;20749;-68
2021/07/18 05:06:41;;;;;;;0.00;0.00;;;16.20;99.90;;;;;;4996232;28;20229;-70
2021/07/18 05:09:08;;;;;;;0.00;0.00;;;16.30;99.90;;;;;;4996775;28;21091;-69
2021/07/18 05:11:35;;;;;;;0.00;0.00;;;16.40;99.90;;;;;;4995258;28;20577;-69
2021/07/18 05:14:02;;;;;;;0.00;0.00;;;16.50;99.90;;;;;;4995726;28;20681;-70
2021/07/18 05:16:30;;;;;;;0.00;0.00;;;16.70;99.90;;;;;;4991596;28;20220;-69
2021/07/18 05:18:57;;;;;;;0.00;0.00;;;16.80;99.90;;;;;;4999641;28;20804;-70
2021/07/18 05:21:24;;;;;;;0.00;0.00;;;17.00;99.90;;;;;;4995689;28;20216;-70
2021/07/18 05:23:52;;;;;;;0.00;0.00;;;17.10;99.90;;;;;;4995351;28;20251;-70
2021/07/18 05:26:19;;;;;;;0.00;0.00;;;17.30;99.90;;;;;;4991904;28;22602;-69
2021/07/18 05:28:46;;;;;;;0.00;0.00;;;17.50;99.90;;;;;;4990542;28;20953;-69
2021/07/18 05:31:13;;;;;;;0.00;0.00;;;17.60;99.90;;;;;;4996808;28;20228;-70
2021/07/18 05:33:40;;;;;;;0.00;0.00;;;17.80;99.90;;;;;;4988470;28;21013;-71
2021/07/18 05:36:11;;;;;;;0.00;0.00;;;18.00;99.90;;;;;;4999029;28;20198;-69
2021/07/18 05:38:38;;;;;;;0.00;0.00;;;18.20;99.90;;;;;;4994187;28;20292;-70
2021/07/18 05:41:06;;;;;;;0.00;0.00;;;18.30;99.90;;;;;;4994365;28;20193;-69
2021/07/18 05:43:33;;;;;;;0.00;0.00;;;18.50;99.90;;;;;;4993027;28;20254;-69
2021/07/18 05:46:00;;;;;;;0.00;0.00;;;18.70;99.90;;;;;;4999054;28;20205;-70
2021/07/18 05:48:27;;;;;;;0.00;0.00;;;18.80;99.90;;;;;;5001947;28;20211;-69
2021/07/18 05:50:54;;;;;;;0.00;0.00;;;19.00;99.90;;;;;;5000272;28;20279;-69
2021/07/18 05:53:21;;;;;;;0.00;0.00;;;19.20;99.90;;;;;;5000041;28;20823;-69
2021/07/18 05:55:48;;;;;;;0.00;0.00;;;19.50;99.90;;;;;;4996509;28;20645;-69
2021/07/18 05:58:16;;;;;;;0.00;0.00;;;19.60;99.90;;;;;;4999824;28;20201;-68
2021/07/18 06:00:43;;;;;;;0.00;0.00;;;19.80;99.90;;;;;;4998697;28;20198;-69
2021/07/18 06:03:10;;;;;;;0.00;0.00;;;20.10;99.90;;;;;;4997424;28;20200;-69
2021/07/18 06:05:38;;;;;;;0.00;0.00;;;20.40;99.90;;;;;;4998394;28;20210;-70
2021/07/18 06:08:05;;;;;;;0.00;0.00;;;20.60;99.90;;;;;;4999610;28;20212;-68
2021/07/18 06:10:33;;;;;;;0.00;0.00;;;20.80;99.90;;;;;;5000421;28;20236;-69
2021/07/18 06:13:00;;;;;;;0.15;0.15;;;21.10;99.90;;;;;;5000208;28;20197;-71
2021/07/18 06:15:28;;;;;;;0.00;0.00;;;21.00;99.90;;;;;;4996843;28;20232;-68
2021/07/18 06:17:55;;;;;;;0.00;0.00;;;21.20;99.90;;;;;;4998093;28;20766;-70
2021/07/18 06:20:22;;;;;;;0.00;0.00;;;21.40;99.90;;;;;;4999240;28;20780;-68
2021/07/18 06:22:51;;;;;;;0.00;0.00;;;21.30;99.90;;;;;;4986217;28;20241;-69
2021/07/18 06:25:18;;;;;;;0.00;0.00;;;21.40;99.90;;;;;;4940817;28;20212;-69
2021/07/18 06:27:46;;;;;;;0.00;0.00;;;21.60;99.90;;;;;;4941827;28;20199;-69
2021/07/18 06:30:15;;;;;;;0.00;0.00;;;21.80;99.90;;;;;;4940633;28;20291;-69
2021/07/18 06:32:43;;;;;;;0.00;0.00;;;22.00;99.90;;;;;;4942136;28;20210;-70
2021/07/18 06:35:11;;;;;;;0.00;0.00;;;22.10;99.90;;;;;;4942413;28;20203;-69
2021/07/18 06:37:38;;;;;;;0.00;0.00;;;22.30;99.90;;;;;;4939097;28;20254;-70
2021/07/18 06:40:06;;;;;;;0.00;0.00;;;22.50;99.90;;;;;;4939748;28;20826;-69
2021/07/18 06:42:34;;;;;;;0.00;0.00;;;22.50;99.90;;;;;;4941298;28;20262;-69
2021/07/18 06:45:01;;;;;;;0.00;0.00;;;22.50;99.90;;;;;;4940100;28;20616;-70
2021/07/18 06:47:28;;;;;;;0.00;0.00;;;22.50;99.90;;;;;;4941401;28;20218;-69
2021/07/18 06:49:57;;;;;;;0.00;0.00;;;22.60;99.90;;;;;;4941527;28;20246;-70
2021/07/18 06:52:25;;;;;;;0.00;0.00;;;22.60;99.90;;;;;;4940749;28;20231;-69
2021/07/18 06:54:52;;;;;;;0.00;0.00;;;22.90;99.90;;;;;;4941253;28;20261;-70
2021/07/18 06:57:20;;;;;;;0.00;0.00;;;23.00;99.90;;;;;;4941359;28;20202;-71
2021/07/18 06:59:47;;;;;;;0.00;0.00;;;23.00;99.90;;;;;;4940361;28;20203;-69
2021/07/18 07:02:14;;;;;;;0.00;0.00;;;23.30;99.90;;;;;;4945881;28;20199;-68
2021/07/18 07:04:41;;;;;;;0.00;0.00;;;23.30;99.90;;;;;;4941841;28;20203;-69
2021/07/18 07:07:10;;;;;;;0.00;0.00;;;23.30;99.90;;;;;;4931354;28;20601;-71
2021/07/18 07:09:37;;;;;;;0.00;0.00;;;23.30;99.90;;;;;;4937633;28;20982;-69
2021/07/18 07:12:04;;;;;;;0.00;0.00;;;23.20;99.90;;;;;;4938604;28;20249;-68
2021/07/18 07:14:31;;;;;;;0.00;0.00;;;23.30;99.90;;;;;;4939177;28;20254;-68
2021/07/18 07:16:58;;;;;;;0.00;0.00;;;23.30;99.90;;;;;;4938513;28;20229;-71
2021/07/18 07:19:25;;;;;;;0.00;0.00;;;23.30;99.90;;;;;;4940304;28;20294;-70
2021/07/18 07:21:52;;;;;;;0.00;0.00;;;23.30;99.90;;;;;;4939951;28;20203;-70
2021/07/18 07:24:20;;;;;;;0.10;0.10;;;23.40;99.90;;;;;;4904786;28;20708;-70
2021/07/18 07:26:48;;;;;;;0.10;0.10;;;23.60;99.90;;;;;;4957871;28;20260;-70
2021/07/18 07:29:14;;;;;;;0.00;0.00;;;23.60;99.90;;;;;;4943289;28;20257;-67
2021/07/18 07:31:42;;;;;;;0.00;0.00;;;23.70;99.90;;;;;;4940475;28;20277;-69
2021/07/18 07:34:09;;;;;;;0.08;0.08;;;23.70;99.90;;;;;;4944852;28;20203;-67
2021/07/18 07:36:36;;;;;;;0.20;0.20;;;23.80;99.90;;;;;;4939596;28;20258;-67
2021/07/18 07:39:04;;;;;;;0.00;0.00;;;23.90;99.90;;;;;;4939057;28;20211;-68
2021/07/18 07:41:32;;;;;;;0.10;0.10;;;24.00;99.90;;;;;;4938384;28;20212;-70
2021/07/18 07:44:00;;;;;;;0.00;0.00;;;23.90;99.90;;;;;;4940476;28;20258;-73
2021/07/18 07:46:27;;;;;;;0.00;0.00;;;24.00;99.90;;;;;;4935833;28;20313;-74
2021/07/18 07:48:55;;;;;;;0.00;0.00;;;24.10;99.90;;;;;;4929156;28;22407;-69
2021/07/18 07:51:22;;;;;;;0.00;0.00;;;24.20;99.90;;;;;;4934392;28;20230;-68
2021/07/18 07:53:50;;;;;;;0.00;0.00;;;24.30;99.90;;;;;;4933084;28;20329;-70
2021/07/18 07:56:17;;;;;;;0.00;0.00;;;24.20;99.90;;;;;;4934686;28;20267;-68
2021/07/18 07:58:45;;;;;;;0.15;0.15;;;24.40;99.90;;;;;;4933705;28;20208;-68
2021/07/18 08:01:12;;;;;;;0.00;0.00;;;24.60;99.90;;;;;;4948047;28;20210;-69
2021/07/18 08:03:39;;;;;;;0.00;0.00;;;24.60;99.90;;;;;;4953862;28;20289;-67
2021/07/18 08:06:07;;;;;;;0.00;0.00;;;24.70;99.90;;;;;;4960296;28;20226;-70
2021/07/18 08:08:34;;;;;;;0.00;0.00;;;24.90;99.90;;;;;;4946682;28;20203;-70
2021/07/18 08:11:01;;;;;;;0.00;0.00;;;25.00;99.90;;;;;;4932690;29;20227;-71
2021/07/18 08:13:28;;;;;;;0.00;0.00;;;25.00;99.90;;;;;;4968361;28;20273;-68
2021/07/18 08:15:56;;;;;;;0.00;0.00;;;25.20;99.90;;;;;;4971095;28;20249;-69
2021/07/18 08:18:24;;;;;;;0.00;0.00;;;25.30;99.90;;;;;;4968842;28;20209;-68
2021/07/18 08:20:51;;;;;;;0.00;0.00;;;25.50;99.90;;;;;;4970775;28;20202;-67
2021/07/18 08:23:18;;;;;;;0.00;0.00;;;25.60;99.90;;;;;;4968939;28;20687;-70
2021/07/18 08:25:45;;;;;;;0.10;0.10;;;25.70;99.90;;;;;;4951642;29;20209;-69
2021/07/18 08:28:12;;;;;;;0.00;0.00;;;25.70;99.90;;;;;;4951620;29;20195;-67
2021/07/18 08:30:42;;;;;;;0.00;0.00;;;25.80;99.90;;;;;;4947189;28;20211;-68
2021/07/18 08:33:11;;;;;;;0.00;0.00;;;26.00;99.90;;;;;;4950180;28;20206;-69
2021/07/18 08:35:38;;;;;;;0.00;0.00;;;26.10;99.90;;;;;;4946613;28;20679;-69
2021/07/18 08:38:06;;;;;;;0.00;0.00;;;26.30;99.90;;;;;;4948327;28;20275;-70
2021/07/18 08:40:36;;;;;;;0.00;0.00;;;26.20;99.90;;;;;;4949957;28;20214;-67
2021/07/18 08:43:04;;;;;;;0.00;0.00;;;26.50;99.90;;;;;;4934055;28;20215;-66
2021/07/18 08:45:31;;;;;;;0.00;0.00;;;26.50;99.90;;;;;;4933889;28;20253;-67
2021/07/18 08:47:58;;;;;;;0.00;0.00;;;26.50;99.90;;;;;;4934994;28;20348;-67
2021/07/18 08:50:26;;;;;;;0.00;0.00;;;26.40;99.90;;;;;;4936788;28;20195;-66
2021/07/18 08:52:55;;;;;;;0.00;0.00;;;26.60;99.90;;;;;;4930385;28;20247;-70
2021/07/18 08:55:23;;;;;;;0.00;0.00;;;26.50;99.90;;;;;;4933807;28;20289;-67
2021/07/18 08:57:51;;;;;;;0.00;0.00;;;26.80;99.90;;;;;;4935804;28;20202;-70
2021/07/18 09:00:18;;;;;;;0.00;0.00;;;26.80;99.90;;;;;;4936403;28;20211;-68
2021/07/18 09:02:45;;;;;;;0.15;0.15;;;26.90;99.90;;;;;;4933153;28;20254;-67
2021/07/18 09:05:12;;;;;;;0.00;0.00;;;26.70;99.90;;;;;;4932566;28;20868;-70
2021/07/18 09:07:45;;;;;;;0.00;0.00;;;26.70;99.90;;;;;;4933769;28;22356;-67
2021/07/18 09:10:14;;;;;;;0.00;0.00;;;26.70;99.90;;;;;;4936886;28;20656;-69
2021/07/18 09:12:41;;;;;;;0.00;0.00;;;26.70;99.90;;;;;;4935809;28;20227;-69
2021/07/18 09:15:10;;;;;;;0.00;0.00;;;26.80;99.90;;;;;;4933110;28;20202;-68
2021/07/18 09:17:39;;;;;;;0.00;0.00;;;27.10;99.90;;;;;;4934405;28;20273;-69
2021/07/18 09:20:17;;;;;;;0.00;0.00;;;27.30;99.90;;;;;;4938170;28;20199;-66
2021/07/18 09:22:45;;;;;;;0.00;0.00;;;27.60;99.90;;;;;;4933197;28;20207;-69
2021/07/18 09:25:13;;;;;;;0.00;0.00;;;27.80;99.90;;;;;;4932817;28;20266;-70
2021/07/18 09:27:40;;;;;;;0.00;0.00;;;27.80;99.90;;;;;;4934887;28;20209;-75
2021/07/18 09:30:10;;;;;;;0.00;0.00;;;28.00;99.90;;;;;;4824421;28;20211;-67
2021/07/18 09:32:39;;;;;;;0.00;0.00;;;28.30;99.90;;;;;;4822767;28;20253;-71
2021/07/18 09:35:08;;;;;;;0.00;0.00;;;28.40;99.90;;;;;;4811888;28;24226;-68
2021/07/18 09:37:37;;;;;;;0.00;0.00;;;28.30;99.90;;;;;;4836526;29;20270;-69
2021/07/18 09:40:09;;;;;;;0.00;0.00;;;28.50;99.90;;;;;;4789183;28;25057;-69
2021/07/18 09:42:43;;;;;;;0.00;0.00;;;28.40;99.90;;;;;;4839457;28;20211;-69
2021/07/18 09:45:20;;;;;;;0.00;0.00;;;28.30;99.90;;;;;;4821363;28;20668;-70
2021/07/18 09:47:55;;;;;;;0.00;0.00;;;28.30;99.90;;;;;;4819698;28;20215;-71
2021/07/18 09:50:25;;;;;;;0.08;0.08;;;28.30;99.90;;;;;;4722897;28;20251;-69
2021/07/18 09:53:09;;;;;;;0.00;0.00;;;28.40;99.90;;;;;;4786107;28;20748;-70
2021/07/18 09:55:38;;;;;;;0.00;0.00;;;28.30;99.90;;;;;;4822340;28;20215;-71
2021/07/18 09:58:05;;;;;;;0.00;0.00;;;28.50;99.90;;;;;;4784538;28;20567;-73
2021/07/18 10:00:43;;;;;;;0.00;0.00;;;28.80;99.90;;;;;;4736206;28;20221;-70
2021/07/18 10:03:12;;;;;;;0.00;0.00;;;28.80;99.90;;;;;;4771011;28;20222;-70
2021/07/18 10:05:39;;;;;;;0.00;0.00;;;28.80;99.90;;;;;;4796255;28;20322;-71
2021/07/18 10:08:07;;;;;;;0.00;0.00;;;28.80;99.90;;;;;;4674344;28;28986;-71
2021/07/18 10:10:35;;;;;;;0.00;0.00;;;28.90;99.90;;;;;;4716503;28;20215;-69
2021/07/18 10:13:05;;;;;;;0.00;0.00;;;29.00;99.90;;;;;;4714296;28;20233;-69
2021/07/18 10:15:32;;;;;;;0.00;0.00;;;29.30;99.90;;;;;;4735775;28;20222;-68
2021/07/18 10:18:01;;;;;;;0.00;0.00;;;29.30;99.90;;;;;;4731920;29;20219;-71
2021/07/18 10:20:28;;;;;;;0.00;0.00;;;29.30;99.90;;;;;;4613818;28;20592;-68
2021/07/18 10:22:57;;;;;;;0.00;0.00;;;29.40;99.90;;;;;;4706717;28;20282;-69
2021/07/18 10:25:26;;;;;;;0.00;0.00;;;29.40;99.90;;;;;;4736315;28;20293;-68
2021/07/18 10:27:53;;;;;;;0.00;0.00;;;29.40;99.90;;;;;;4624500;29;20207;-70
2021/07/18 10:30:25;;;;;;;0.30;0.20;;;29.40;99.90;;;;;;4649790;28;20218;-72
2021/07/18 10:32:54;;;;;;;0.00;0.00;;;29.60;99.90;;;;;;4731952;28;20683;-69
2021/07/18 10:35:23;;;;;;;0.00;0.00;;;29.60;99.90;;;;;;4693239;29;20215;-69
2021/07/18 10:37:50;;;;;;;0.00;0.00;;;29.70;99.90;;;;;;4619044;28;20226;-69
2021/07/18 10:40:21;;;;;;;0.05;0.05;;;29.60;99.90;;;;;;4685170;29;20241;-70
2021/07/18 10:42:49;;;;;;;0.00;0.00;;;29.80;99.90;;;;;;4842606;28;20203;-71
2021/07/18 10:45:20;;;;;;;0.15;0.15;;;29.70;99.90;;;;;;4952111;29;20195;-68
2021/07/18 10:48:03;;;;;;;0.38;0.35;;;29.60;99.90;;;;;;4953083;29;20203;-69
2021/07/18 10:50:50;;;;;;;0.00;0.00;;;29.40;99.90;;;;;;4951608;29;20195;-68
2021/07/18 10:53:22;;;;;;;0.00;0.00;;;29.10;99.90;;;;;;4951522;28;20328;-70
2021/07/18 10:55:49;;;;;;;0.00;0.00;;;29.10;99.90;;;;;;4968257;28;20202;-68
2021/07/18 10:58:48;;;;;;;0.00;0.00;;;29.40;99.90;;;;;;4956452;28;20215;-69
2021/07/18 11:01:35;;;;;;;0.00;0.00;;;29.70;99.90;;;;;;4952787;29;20214;-68
2021/07/18 11:04:05;;;;;;;0.00;0.00;;;30.20;99.90;;;;;;4953225;29;20650;-68
2021/07/18 11:06:34;;;;;;;0.00;0.00;;;30.20;99.90;;;;;;4952189;28;20477;-69
2021/07/18 11:09:18;;;;;;;0.00;0.00;;;30.50;99.90;;;;;;4948024;28;20590;-69
2021/07/18 11:11:48;;;;;;;0.00;0.00;;;30.40;99.90;;;;;;4951927;28;20254;-69
2021/07/18 11:14:25;;;;;;;0.00;0.00;;;30.50;99.90;;;;;;4966044;28;20206;-69
2021/07/18 11:16:54;;;;;;;0.00;0.00;;;30.30;99.90;;;;;;4933641;29;20744;-69
2021/07/18 11:19:57;;;;;;;0.00;0.00;;;30.30;99.90;;;;;;4933312;29;20210;-69
2021/07/18 11:23:00;;;;;;;0.00;0.00;;;30.20;99.90;;;;;;4941144;28;20241;-70
2021/07/18 11:25:52;;;;;;;0.00;0.00;;;30.30;99.90;;;;;;4936987;28;20226;-70
2021/07/18 11:28:44;;;;;;;0.00;0.00;;;30.30;99.90;;;;;;4954955;28;20201;-69
2021/07/18 11:31:36;;;;;;;0.00;0.00;;;30.50;99.90;;;;;;4969091;28;20773;-72
2021/07/18 11:34:15;;;;;;;0.00;0.00;;;30.70;99.90;;;;;;4939984;28;20323;-71
2021/07/18 11:37:00;;;;;;;0.32;0.32;;;30.80;99.90;;;;;;4952737;28;20353;-66
2021/07/18 11:39:28;;;;;;;0.00;0.00;;;30.80;99.90;;;;;;4951502;28;20741;-67
2021/07/18 11:41:56;;;;;;;0.00;0.00;;;30.60;99.90;;;;;;4922660;28;20218;-68
2021/07/18 11:44:26;;;;;;;0.00;0.00;;;30.80;99.90;;;;;;4968921;28;20714;-69
2021/07/18 11:46:56;;;;;;;0.00;0.00;;;31.00;99.90;;;;;;4969120;28;20199;-68
2021/07/18 11:49:32;;;;;;;0.00;0.00;;;31.10;99.90;;;;;;4951819;28;20201;-68
2021/07/18 11:52:01;;;;;;;0.00;0.00;;;31.30;99.90;;;;;;4941117;28;20686;-69
2021/07/18 11:54:29;;;;;;;0.08;0.08;;;31.20;99.90;;;;;;4962219;28;20297;-68
2021/07/18 11:56:56;;;;;;;0.00;0.00;;;31.30;99.90;;;;;;4932594;29;20204;-68
2021/07/18 11:59:25;;;;;;;0.00;0.00;;;31.40;99.90;;;;;;4938175;28;20465;-70
2021/07/18 12:01:54;;;;;;;0.00;0.00;;;31.50;99.90;;;;;;4951225;29;20558;-69
2021/07/18 12:04:26;;;;;;;0.00;0.00;;;31.30;99.90;;;;;;4957284;28;20198;-68
2021/07/18 12:06:55;;;;;;;0.00;0.00;;;31.30;99.90;;;;;;4968309;28;20241;-69
2021/07/18 12:09:25;;;;;;;0.00;0.00;;;31.30;99.90;;;;;;4967060;28;20207;-70
2021/07/18 12:11:53;;;;;;;0.00;0.00;;;31.20;99.90;;;;;;4933885;29;20642;-69
2021/07/18 12:14:22;;;;;;;0.00;0.00;;;31.20;99.90;;;;;;4934996;28;20270;-70
2021/07/18 12:16:53;;;;;;;0.00;0.00;;;31.30;99.90;;;;;;4943490;28;20266;-71
2021/07/18 12:19:24;;;;;;;0.00;0.00;;;31.40;99.90;;;;;;4933157;29;20259;-69
2021/07/18 12:21:52;;;;;;;0.00;0.00;;;31.60;99.90;;;;;;4945105;29;20203;-69
2021/07/18 12:24:26;;;;;;;0.00;0.00;;;31.60;99.90;;;;;;4964903;28;20202;-70
2021/07/18 12:27:06;;;;;;;0.00;0.00;;;31.50;99.90;;;;;;4970567;28;20190;-69
2021/07/18 12:29:35;;;;;;;1.17;1.08;;;31.40;99.90;;;;;;4970948;28;20235;-69
2021/07/18 12:32:03;;;;;;;0.00;0.00;;;31.30;99.90;;;;;;4949695;28;20566;-70
2021/07/18 12:34:32;;;;;;;0.00;0.00;;;31.30;99.90;;;;;;4959393;28;20667;-68
2021/07/18 12:37:02;;;;;;;0.00;0.00;;;31.20;99.90;;;;;;4953890;28;20195;-72
2021/07/18 12:39:32;;;;;;;0.00;0.00;;;31.00;99.90;;;;;;4962866;28;20194;-70
2021/07/18 12:42:01;;;;;;;0.00;0.00;;;31.00;99.90;;;;;;4950960;28;20246;-71
2021/07/18 12:44:33;;;;;;;0.00;0.00;;;31.10;99.90;;;;;;4951393;28;20270;-69
2021/07/18 12:47:19;;;;;;;0.00;0.00;;;31.30;99.90;;;;;;4943990;28;20237;-69
2021/07/18 12:50:00;;;;;;;0.00;0.00;;;31.30;99.90;;;;;;4940020;28;20207;-69
2021/07/18 12:52:27;;;;;;;0.00;0.00;;;31.30;99.90;;;;;;4935782;29;20219;-71
2021/07/18 12:54:56;;;;;;;0.00;0.00;;;31.30;99.90;;;;;;4932140;29;20204;-68
2021/07/18 12:57:29;;;;;;;0.00;0.00;;;31.20;99.90;;;;;;4944800;29;20207;-70